Time;durP1;ratioP1;P1;durP2;ratioP2;P2;SDS_P1;SDS_P2;PMS_P1;PMS_P2;Temp;Humidity;BMP_temperature;BMP_pressure;BME280_temperature;BME280_humidity;BME280_pressure;Samples;Min_cycle;Max_cycle;Signal;HPM_P1;HPM_P2
2023/10/28 00:00:45;;;;;;;7.85;1.80;;;11.50;99.90;;;10.61;100.00;99264.94;4219379;28;20522;-75
2023/10/28 00:02:46;;;;;;;11.00;1.88;;;11.40;99.90;;;10.53;100.00;99251.91;4219302;28;20390;-75
2023/10/28 00:04:46;;;;;;;10.35;2.45;;;11.40;99.90;;;10.46;100.00;99258.94;4219317;28;20024;-75
2023/10/28 00:06:47;;;;;;;13.25;2.80;;;11.30;99.90;;;10.37;100.00;99250.38;4201177;28;20391;-75
2023/10/28 00:08:49;;;;;;;7.72;1.60;;;11.20;99.90;;;10.25;100.00;99232.63;4219511;28;20479;-75
2023/10/28 00:10:51;;;;;;;8.93;2.15;;;11.10;99.90;;;10.16;100.00;99220.59;4219151;28;20024;-75
2023/10/28 00:12:52;;;;;;;11.05;3.50;;;11.00;99.90;;;10.02;100.00;99217.84;4201067;28;20028;-75
2023/10/28 00:14:53;;;;;;;14.38;2.97;;;10.90;99.90;;;9.93;100.00;99207.59;4219027;28;20038;-75
2023/10/28 00:16:53;;;;;;;12.95;2.33;;;10.90;99.90;;;9.85;100.00;99203.31;4234874;28;20031;-75
2023/10/28 00:18:54;;;;;;;11.70;2.65;;;10.70;99.90;;;9.82;100.00;99200.22;4219187;28;20035;-75
2023/10/28 00:20:56;;;;;;;8.10;2.08;;;10.70;99.90;;;9.70;100.00;99188.56;4223648;28;20432;-75
2023/10/28 00:23:03;;;;;;;9.27;1.92;;;10.60;99.90;;;9.66;100.00;99182.84;4186653;28;20032;-75
2023/10/28 00:25:05;;;;;;;9.63;1.90;;;10.50;99.90;;;9.61;100.00;99179.97;4201963;28;20020;-75
2023/10/28 00:27:06;;;;;;;12.30;2.40;;;10.40;99.90;;;9.57;100.00;99180.53;4218861;28;20024;-75
2023/10/28 00:29:07;;;;;;;17.60;2.88;;;10.40;99.90;;;9.51;100.00;99160.22;4200887;28;20028;-75
2023/10/28 00:31:08;;;;;;;12.82;2.65;;;10.40;99.90;;;9.49;100.00;99168.31;4200780;28;20027;-75
2023/10/28 00:33:09;;;;;;;13.18;3.22;;;10.30;99.90;;;9.40;100.00;99151.00;4218986;28;20028;-75
2023/10/28 00:35:12;;;;;;;14.63;2.30;;;10.30;99.90;;;9.42;100.00;99164.78;4218941;28;20024;-75
2023/10/28 00:37:13;;;;;;;18.75;2.90;;;10.20;99.90;;;9.40;100.00;99157.09;4201037;28;20036;-75
2023/10/28 00:39:14;;;;;;;13.00;2.60;;;10.20;99.90;;;9.37;100.00;99149.56;4218625;28;20139;-75
2023/10/28 00:41:17;;;;;;;14.90;2.65;;;10.20;99.90;;;9.39;100.00;99152.81;4216992;28;20028;-75
2023/10/28 00:43:24;;;;;;;18.00;2.95;;;10.20;99.90;;;9.36;100.00;99150.56;4210052;28;20021;-75
2023/10/28 00:45:25;;;;;;;17.95;3.83;;;10.10;99.90;;;9.30;100.00;99138.16;4218760;28;20126;-75
2023/10/28 00:47:25;;;;;;;19.58;3.30;;;10.20;99.90;;;9.29;100.00;99135.69;4200667;28;20024;-75
2023/10/28 00:49:29;;;;;;;18.50;2.63;;;10.10;99.90;;;9.27;100.00;99129.81;4200561;28;20033;-75
2023/10/28 00:51:29;;;;;;;16.13;4.17;;;10.10;99.90;;;9.26;100.00;99136.06;4201082;28;20050;-75
2023/10/28 00:53:31;;;;;;;14.13;1.83;;;10.10;99.90;;;9.22;100.00;99135.66;4218650;28;20024;-75
2023/10/28 00:55:32;;;;;;;21.20;2.60;;;10.10;99.90;;;9.26;100.00;99138.69;4200779;28;20530;-75
2023/10/28 00:57:33;;;;;;;18.23;2.50;;;10.10;99.90;;;9.22;100.00;99132.19;4218496;28;20051;-75
2023/10/28 00:59:34;;;;;;;20.25;2.97;;;10.10;99.90;;;9.19;100.00;99124.69;4203092;28;20024;-75
2023/10/28 01:01:35;;;;;;;11.75;2.55;;;10.10;99.90;;;9.28;100.00;99134.09;4200495;28;20515;-75
2023/10/28 01:03:36;;;;;;;20.73;3.08;;;10.10;99.90;;;9.37;100.00;99127.69;4218543;28;20101;-75
2023/10/28 01:05:37;;;;;;;16.80;3.30;;;10.20;99.90;;;9.50;100.00;99122.53;4200528;28;20021;-75
2023/10/28 01:07:40;;;;;;;16.80;3.05;;;10.20;99.90;;;9.58;100.00;99122.44;4218522;28;20410;-75
2023/10/28 01:09:46;;;;;;;20.73;3.90;;;10.30;99.90;;;9.69;100.00;99113.19;4201457;28;20032;-75
2023/10/28 01:11:47;;;;;;;19.38;4.22;;;10.40;99.90;;;9.76;100.00;99128.06;4218100;28;20111;-75
2023/10/28 01:13:48;;;;;;;15.98;2.95;;;10.50;99.90;;;9.84;100.00;99140.28;4200411;28;20054;-75
2023/10/28 01:15:48;;;;;;;14.55;2.97;;;10.60;99.90;;;9.89;100.00;99127.34;4200511;28;20020;-75
2023/10/28 01:17:49;;;;;;;13.80;2.92;;;10.60;99.90;;;9.94;100.00;99131.06;4218491;28;20035;-75
2023/10/28 01:19:54;;;;;;;10.35;2.05;;;10.70;99.90;;;9.97;100.00;99130.63;4200382;28;20033;-75
2023/10/28 01:21:54;;;;;;;;;;;10.70;99.90;;;9.95;100.00;99122.13;4226145;28;20084;-75
2023/10/28 01:23:56;;;;;;;11.77;2.80;;;10.70;99.90;;;9.94;100.00;99119.69;4218650;28;20404;-75
2023/10/28 01:25:59;;;;;;;14.88;2.78;;;10.70;99.90;;;9.83;100.00;99122.81;4218471;28;20068;-75
2023/10/28 01:28:00;;;;;;;10.82;2.22;;;10.60;99.90;;;9.71;100.00;99111.19;4217996;28;20103;-75
2023/10/28 01:30:01;;;;;;;15.95;2.47;;;10.50;99.90;;;9.56;100.00;99103.38;4218778;28;20038;-75
2023/10/28 01:32:05;;;;;;;14.90;3.75;;;10.40;99.90;;;9.47;100.00;99109.75;4218560;28;20024;-75
2023/10/28 01:34:06;;;;;;;11.48;3.00;;;10.30;99.90;;;9.37;100.00;99106.66;4218272;28;20028;-75
2023/10/28 01:36:07;;;;;;;16.15;2.45;;;10.20;99.90;;;9.27;100.00;99104.31;4218574;28;20386;-75
2023/10/28 01:38:09;;;;;;;16.00;3.08;;;10.20;99.90;;;9.17;100.00;99093.28;4218399;28;20032;-75
2023/10/28 01:40:13;;;;;;;12.30;2.65;;;10.10;99.90;;;9.09;100.00;99095.22;4218545;28;20031;-75
2023/10/28 01:42:14;;;;;;;;;;;10.00;99.90;;;8.96;100.00;99097.72;4200802;28;20035;-75
2023/10/28 01:44:16;;;;;;;20.15;3.15;;;9.80;99.90;;;8.92;100.00;99094.66;4200173;28;19916;-75
2023/10/28 01:46:17;;;;;;;8.48;2.30;;;9.80;99.90;;;8.88;100.00;99096.00;4218573;28;20024;-75
2023/10/28 01:48:18;;;;;;;13.93;2.65;;;9.70;99.90;;;8.81;100.00;99092.50;4218197;28;20028;-75
2023/10/28 01:50:21;;;;;;;11.57;2.20;;;9.70;99.90;;;8.78;100.00;99098.91;4218283;28;20506;-75
2023/10/28 01:52:22;;;;;;;15.52;2.55;;;9.70;99.90;;;8.76;100.00;99106.19;4218035;28;20394;-75
2023/10/28 01:54:22;;;;;;;14.82;2.63;;;9.60;99.90;;;8.72;100.00;99099.66;4201971;28;20070;-75
2023/10/28 01:56:23;;;;;;;15.50;3.13;;;9.60;99.90;;;8.65;100.00;99098.78;4221309;28;20031;-75
2023/10/28 01:58:25;;;;;;;17.35;2.90;;;9.50;99.90;;;8.65;100.00;99096.16;4203396;28;20021;-75
2023/10/28 02:00:30;;;;;;;21.27;3.30;;;9.50;99.90;;;8.64;100.00;99110.28;4221174;28;20107;-75
2023/10/28 02:02:33;;;;;;;15.25;3.45;;;9.50;99.90;;;8.63;100.00;99106.00;4221153;28;20052;-75
2023/10/28 02:04:34;;;;;;;11.45;3.10;;;9.40;99.90;;;8.56;100.00;99085.91;4203195;28;20032;-75
2023/10/28 02:06:35;;;;;;;19.08;3.63;;;9.40;99.90;;;8.57;100.00;99096.22;4203405;28;20028;-75
2023/10/28 02:08:36;;;;;;;15.43;2.72;;;9.40;99.90;;;8.52;100.00;99098.59;4221209;28;20532;-75
2023/10/28 02:10:37;;;;;;;13.48;2.72;;;9.40;99.90;;;8.51;100.00;99093.53;4203200;28;20046;-75
2023/10/28 02:12:37;;;;;;;16.02;2.85;;;9.30;99.90;;;8.42;100.00;99082.31;4220970;28;20036;-75
2023/10/28 02:14:40;;;;;;;13.40;2.30;;;9.30;99.90;;;8.46;100.00;99085.38;4221298;28;20039;-75
2023/10/28 02:16:41;;;;;;;11.90;2.75;;;9.30;99.90;;;8.44;100.00;99090.00;4220873;28;20020;-75
2023/10/28 02:18:42;;;;;;;12.20;3.67;;;9.30;99.90;;;8.43;100.00;99091.81;4203042;28;20407;-75
2023/10/28 02:20:43;;;;;;;12.20;2.55;;;9.30;99.90;;;8.40;100.00;99081.66;4202840;28;20024;-75
2023/10/28 02:22:43;;;;;;;18.45;2.92;;;9.20;99.90;;;8.44;100.00;99074.25;4186118;28;20041;-75
2023/10/28 02:24:44;;;;;;;8.77;2.33;;;9.20;99.90;;;8.47;100.00;99076.50;4219773;28;20030;-75
2023/10/28 02:26:46;;;;;;;9.43;3.00;;;9.20;99.90;;;8.53;100.00;99076.59;4202810;28;20506;-75
2023/10/28 02:28:46;;;;;;;21.45;3.10;;;9.30;99.90;;;8.58;100.00;99076.84;4203130;28;20021;-75
2023/10/28 02:30:47;;;;;;;11.63;2.20;;;9.40;99.90;;;8.66;100.00;99075.94;4219518;28;20503;-75
2023/10/28 02:32:48;;;;;;;14.85;3.22;;;9.40;99.90;;;8.71;100.00;99068.31;4202587;28;20423;-75
2023/10/28 02:34:49;;;;;;;15.80;2.92;;;9.50;99.90;;;8.77;100.00;99068.41;4220972;28;20034;-75
2023/10/28 02:36:50;;;;;;;13.40;2.28;;;9.50;99.90;;;8.84;100.00;99069.25;4221015;28;20027;-75
2023/10/28 02:38:51;;;;;;;15.93;2.35;;;9.60;99.90;;;8.88;100.00;99064.44;4202817;28;20037;-75
2023/10/28 02:40:51;;;;;;;10.00;2.67;;;9.60;99.90;;;8.93;100.00;99058.66;4220555;28;20031;-75
2023/10/28 02:42:52;;;;;;;11.50;2.80;;;9.70;99.90;;;9.01;100.00;99061.16;4220433;28;20032;-75
2023/10/28 02:44:53;;;;;;;14.73;2.63;;;9.70;99.90;;;9.08;100.00;99054.16;4220704;28;20035;-75
2023/10/28 02:46:54;;;;;;;11.10;2.08;;;9.80;99.90;;;9.08;100.00;99054.16;4220603;28;20429;-75
2023/10/28 02:48:55;;;;;;;10.52;2.35;;;9.80;99.90;;;9.06;100.00;99056.13;4220735;28;20103;-75
2023/10/28 02:51:01;;;;;;;11.20;2.13;;;9.80;99.90;;;9.01;100.00;99063.78;4220536;28;20024;-75
2023/10/28 02:53:02;;;;;;;9.50;1.90;;;9.80;99.90;;;8.97;100.00;99057.25;4203263;28;20068;-75
2023/10/28 02:55:05;;;;;;;19.50;4.72;;;9.80;99.90;;;8.95;100.00;99057.47;4220452;28;20495;-75
2023/10/28 02:57:06;;;;;;;17.25;3.00;;;9.80;99.90;;;9.06;100.00;99067.47;4220331;28;20395;-75
2023/10/28 02:59:07;;;;;;;19.83;3.15;;;9.80;99.90;;;9.20;100.00;99065.81;4222168;28;20035;-75
2023/10/28 03:01:11;;;;;;;12.02;2.50;;;10.00;99.90;;;9.31;100.00;99066.13;4192502;28;20033;-75
2023/10/28 03:03:11;;;;;;;17.80;2.70;;;10.00;99.90;;;9.40;100.00;99064.97;4202467;28;20021;-75
2023/10/28 03:05:12;;;;;;;14.43;2.85;;;10.20;99.90;;;9.47;100.00;99056.34;4219911;28;20050;-75
2023/10/28 03:07:13;;;;;;;14.38;2.60;;;10.20;99.90;;;9.54;100.00;99046.66;4220398;28;20028;-75
2023/10/28 03:09:14;;;;;;;18.85;2.63;;;10.30;99.90;;;9.59;100.00;99054.81;4220380;28;20026;-75
2023/10/28 03:11:15;;;;;;;11.60;1.98;;;10.30;99.90;;;9.62;100.00;99057.84;4220072;28;20020;-75
2023/10/28 03:13:15;;;;;;;12.30;3.22;;;10.30;99.90;;;9.66;100.00;99056.47;4220144;28;20032;-75
2023/10/28 03:15:16;;;;;;;15.23;2.78;;;10.40;99.90;;;9.70;100.00;99055.09;4220211;28;20016;-75
2023/10/28 03:17:17;;;;;;;26.45;3.70;;;10.40;99.90;;;9.77;100.00;99055.94;4221185;28;20028;-75
2023/10/28 03:19:18;;;;;;;15.43;2.78;;;10.50;99.90;;;9.84;100.00;99056.00;4220194;28;20016;-75
2023/10/28 03:21:19;;;;;;;15.85;3.08;;;10.50;99.90;;;9.89;100.00;99054.41;4227611;28;20483;-76
2023/10/28 03:23:20;;;;;;;16.58;3.15;;;10.60;99.90;;;9.93;100.00;99055.66;4219824;28;20024;-75
2023/10/28 03:25:21;;;;;;;14.82;3.00;;;10.70;99.90;;;9.96;100.00;99057.91;4220192;28;20089;-75
2023/10/28 03:27:22;;;;;;;16.63;3.30;;;10.70;99.90;;;10.07;100.00;99053.09;4220286;28;20028;-75
2023/10/28 03:29:22;;;;;;;21.10;3.08;;;10.80;99.90;;;10.15;100.00;99045.91;4216770;28;20032;-75
2023/10/28 03:31:23;;;;;;;19.13;2.70;;;10.80;99.90;;;10.21;100.00;99047.75;4201827;28;20020;-75
2023/10/28 03:33:26;;;;;;;14.15;2.65;;;10.90;99.90;;;10.29;100.00;99050.22;4220086;28;20020;-75
2023/10/28 03:35:29;;;;;;;14.68;2.35;;;11.00;99.90;;;10.29;100.00;99041.50;4220027;28;20019;-75
2023/10/28 03:37:31;;;;;;;15.63;3.03;;;11.00;99.90;;;10.28;100.00;99034.59;4201652;28;20050;-75
2023/10/28 03:39:32;;;;;;;20.20;3.38;;;11.00;99.90;;;10.23;100.00;99029.09;4220063;28;20020;-75
2023/10/28 03:41:33;;;;;;;10.93;2.08;;;11.00;99.90;;;10.23;100.00;99039.66;4217988;28;20035;-75
2023/10/28 03:43:34;;;;;;;13.18;2.17;;;11.00;99.90;;;10.21;100.00;99031.13;4228885;28;20023;-75
2023/10/28 03:45:37;;;;;;;17.02;2.92;;;11.00;99.90;;;10.23;100.00;99024.66;4201733;28;20025;-75
2023/10/28 03:47:38;;;;;;;11.65;2.75;;;11.00;99.90;;;10.22;100.00;99032.75;4206481;28;20024;-75
2023/10/28 03:49:39;;;;;;;22.70;3.70;;;11.00;99.90;;;10.28;100.00;99034.59;4219471;28;20024;-75
2023/10/28 03:51:40;;;;;;;13.77;2.30;;;11.00;99.90;;;10.32;100.00;99034.03;4201519;28;20046;-75
2023/10/28 03:53:41;;;;;;;11.75;2.78;;;11.10;99.90;;;10.38;100.00;99037.69;4201652;28;20039;-75
2023/10/28 03:55:42;;;;;;;11.65;2.13;;;11.10;99.90;;;10.42;100.00;99033.66;4184866;28;20463;-75
2023/10/28 03:57:43;;;;;;;7.65;1.55;;;11.10;99.90;;;10.43;100.00;99036.09;4219579;28;20403;-75
2023/10/28 03:59:46;;;;;;;13.45;2.90;;;11.20;99.90;;;10.45;100.00;99033.28;4219313;28;20038;-75
2023/10/28 04:01:47;;;;;;;18.40;3.33;;;11.20;99.90;;;10.49;100.00;99039.75;4201493;28;20038;-75
2023/10/28 04:03:48;;;;;;;16.27;3.22;;;11.20;99.90;;;10.49;100.00;99040.56;4218084;28;20044;-75
2023/10/28 04:05:50;;;;;;;16.88;2.97;;;11.30;99.90;;;10.55;100.00;99049.50;4235191;28;20024;-75
2023/10/28 04:07:50;;;;;;;11.70;2.72;;;11.30;99.90;;;10.59;100.00;99050.75;4219362;28;20020;-75
2023/10/28 04:09:51;;;;;;;18.92;2.53;;;11.30;99.90;;;10.65;100.00;99055.25;4219197;28;20398;-75
2023/10/28 04:11:52;;;;;;;19.83;3.17;;;11.40;99.90;;;10.68;100.00;99069.84;4219017;28;20043;-75
2023/10/28 04:13:53;;;;;;;20.60;3.53;;;11.40;99.90;;;10.70;100.00;99063.38;4219255;28;20032;-75
2023/10/28 04:15:54;;;;;;;17.23;3.67;;;11.50;99.90;;;10.74;100.00;99061.97;4201036;28;20491;-75
2023/10/28 04:17:55;;;;;;;22.48;2.28;;;11.50;99.90;;;10.77;100.00;99060.75;4218810;28;20032;-76
2023/10/28 04:19:57;;;;;;;17.52;2.40;;;11.50;99.90;;;10.77;100.00;99060.75;4218865;28;20027;-75
2023/10/28 04:21:58;;;;;;;17.88;2.40;;;11.50;99.90;;;10.79;100.00;99051.63;4224477;28;20054;-75
2023/10/28 04:23:59;;;;;;;13.23;2.03;;;11.50;99.90;;;10.78;100.00;99052.63;4219149;28;20020;-75
2023/10/28 04:26:00;;;;;;;11.55;2.45;;;11.50;99.90;;;10.80;100.00;99053.28;4200921;28;20066;-75
2023/10/28 04:28:01;;;;;;;16.38;2.70;;;11.60;99.90;;;10.85;100.00;99050.84;4200700;28;20024;-75
2023/10/28 04:30:05;;;;;;;15.90;2.05;;;11.60;99.90;;;10.85;100.00;99045.56;4219039;28;20028;-75
2023/10/28 04:32:07;;;;;;;10.05;1.75;;;11.60;99.90;;;10.81;100.00;99044.31;4218912;28;20055;-75
2023/10/28 04:34:07;;;;;;;10.95;1.67;;;11.60;99.90;;;10.86;100.00;99049.84;4200950;28;20071;-75
2023/10/28 04:36:09;;;;;;;13.80;2.38;;;11.60;99.90;;;10.88;100.00;99049.63;4218886;28;20024;-75
2023/10/28 04:38:10;;;;;;;13.45;2.28;;;11.60;99.90;;;10.88;100.00;99050.44;4201083;28;20082;-75
2023/10/28 04:40:12;;;;;;;13.40;2.92;;;11.60;99.90;;;10.87;100.00;99048.81;4218920;28;20035;-76
2023/10/28 04:42:13;;;;;;;8.85;1.92;;;11.60;99.90;;;10.89;100.00;99053.91;4218475;28;20124;-75
2023/10/28 04:44:13;;;;;;;8.75;1.50;;;11.60;99.90;;;10.90;100.00;99040.50;4200751;28;20017;-75
2023/10/28 04:46:15;;;;;;;8.82;1.65;;;11.60;99.90;;;10.88;100.00;99045.16;4218759;28;20022;-75
2023/10/28 04:48:16;;;;;;;8.98;1.88;;;11.60;99.90;;;10.93;100.00;99047.22;4218794;28;20035;-75
2023/10/28 04:50:17;;;;;;;9.88;2.20;;;11.60;99.90;;;10.89;100.00;99046.81;4218685;28;20483;-75
2023/10/28 04:52:20;;;;;;;10.98;1.60;;;11.60;99.90;;;10.87;100.00;99046.16;4200584;28;20028;-75
2023/10/28 04:54:22;;;;;;;12.52;1.70;;;11.60;99.90;;;10.84;100.00;99051.84;4201112;28;20033;-75
2023/10/28 04:56:23;;;;;;;6.65;1.30;;;11.60;99.90;;;10.78;100.00;99054.50;4200432;28;20058;-75
2023/10/28 04:58:24;;;;;;;10.93;1.67;;;11.50;99.90;;;10.66;100.00;99046.34;4200584;28;20029;-75
2023/10/28 05:00:25;;;;;;;6.82;1.45;;;11.50;99.90;;;10.62;100.00;99046.91;4183941;28;20048;-75
2023/10/28 05:02:26;;;;;;;6.30;1.40;;;11.40;99.90;;;10.54;100.00;99047.91;4205825;28;20111;-75
2023/10/28 05:04:27;;;;;;;14.00;2.10;;;11.30;99.90;;;10.41;100.00;99045.22;4200706;28;20020;-75
2023/10/28 05:06:28;;;;;;;14.85;1.60;;;11.20;99.90;;;10.31;100.00;99039.47;4218579;28;20051;-75
2023/10/28 05:08:29;;;;;;;11.88;1.80;;;11.10;99.90;;;10.21;100.00;99034.59;4218364;28;20020;-75
2023/10/28 05:10:30;;;;;;;13.10;1.90;;;11.00;99.90;;;10.09;100.00;99030.84;4218800;28;20144;-75
2023/10/28 05:12:32;;;;;;;7.40;1.70;;;10.90;99.90;;;10.03;100.00;99032.41;4220622;28;20122;-75
2023/10/28 05:14:33;;;;;;;13.90;2.55;;;10.80;99.90;;;9.99;100.00;99038.28;4183888;28;20059;-75
2023/10/28 05:16:34;;;;;;;10.75;2.08;;;10.80;99.90;;;9.95;100.00;99031.75;4218297;28;20080;-75
2023/10/28 05:18:36;;;;;;;13.30;3.10;;;10.80;99.90;;;9.91;100.00;99031.34;4217244;28;20204;-75
2023/10/28 05:20:37;;;;;;;11.77;2.65;;;10.70;99.90;;;9.87;100.00;99030.09;4200561;28;20086;-75
2023/10/28 05:22:39;;;;;;;17.05;2.65;;;10.70;99.90;;;9.81;100.00;99025.59;4222488;28;20052;-75
2023/10/28 05:24:41;;;;;;;10.27;1.70;;;10.60;99.90;;;9.77;100.00;99034.06;4218265;28;20031;-75
2023/10/28 05:26:43;;;;;;;9.10;1.48;;;10.60;99.90;;;9.71;100.00;99035.66;4200317;28;20048;-75
2023/10/28 05:28:46;;;;;;;11.05;1.60;;;10.50;99.90;;;9.66;100.00;99032.78;4221051;28;20085;-75
2023/10/28 05:30:47;;;;;;;9.90;2.30;;;10.40;99.90;;;9.58;100.00;99014.50;4204272;28;20039;-75
2023/10/28 05:32:50;;;;;;;10.55;2.22;;;10.40;99.90;;;9.57;100.00;99012.88;4203667;28;20462;-75
2023/10/28 05:34:51;;;;;;;9.18;1.77;;;10.40;99.90;;;9.50;100.00;99005.94;4221888;28;20031;-75
2023/10/28 05:36:52;;;;;;;10.35;2.42;;;10.30;99.90;;;9.48;100.00;99016.66;4221817;28;20020;-75
2023/10/28 05:38:54;;;;;;;7.57;2.22;;;10.30;99.90;;;9.45;100.00;99022.28;4221911;28;20145;-75
2023/10/28 05:40:55;;;;;;;5.22;1.23;;;10.30;99.90;;;9.43;100.00;99021.69;4203660;28;20387;-75
2023/10/28 05:42:56;;;;;;;8.63;1.65;;;10.20;99.90;;;9.39;100.00;99021.25;4221579;28;20032;-75
2023/10/28 05:44:57;;;;;;;10.32;1.55;;;10.20;99.90;;;9.37;100.00;99022.44;4221690;28;20026;-75
2023/10/28 05:46:59;;;;;;;10.48;1.85;;;10.10;99.90;;;9.35;100.00;99029.69;4221587;28;20028;-75
2023/10/28 05:49:00;;;;;;;13.65;1.85;;;10.10;99.90;;;9.30;100.00;99024.19;4203525;28;20023;-75
2023/10/28 05:51:02;;;;;;;6.70;2.05;;;10.10;99.90;;;9.28;100.00;99034.91;4203600;28;20075;-75
2023/10/28 05:53:03;;;;;;;7.00;1.38;;;10.10;99.90;;;9.24;100.00;99030.22;4221690;28;20032;-75
2023/10/28 05:55:05;;;;;;;7.03;1.67;;;10.10;99.90;;;9.19;100.00;99019.44;4221492;28;20061;-75
2023/10/28 05:57:07;;;;;;;11.57;1.80;;;10.00;99.90;;;9.17;100.00;99029.34;4221089;28;20028;-75
2023/10/28 05:59:08;;;;;;;8.30;1.38;;;9.90;99.90;;;9.12;100.00;99029.09;4221463;28;20036;-75
2023/10/28 06:01:09;;;;;;;4.95;1.23;;;9.90;99.90;;;9.10;100.00;99029.28;4203332;28;20020;-75
2023/10/28 06:03:12;;;;;;;5.30;1.00;;;9.90;99.90;;;9.05;100.00;99034.28;4221283;28;20026;-75
2023/10/28 06:05:14;;;;;;;6.78;1.55;;;9.90;99.90;;;8.97;100.00;99036.22;4221313;28;20026;-75
2023/10/28 06:07:16;;;;;;;4.22;1.13;;;9.80;99.90;;;8.94;100.00;99032.16;4203412;28;20024;-75
2023/10/28 06:09:17;;;;;;;4.28;0.95;;;9.80;99.90;;;8.89;100.00;99035.34;4221486;28;20028;-75
2023/10/28 06:11:18;;;;;;;6.93;1.23;;;9.80;99.90;;;8.88;100.00;99040.78;4219643;28;20028;-75
2023/10/28 06:13:19;;;;;;;13.02;2.53;;;9.70;99.90;;;8.88;100.00;99035.53;4217788;28;20024;-75
2023/10/28 06:15:19;;;;;;;13.52;2.45;;;9.70;99.90;;;8.92;100.00;99042.06;4209293;28;20024;-75
2023/10/28 06:17:20;;;;;;;12.25;2.40;;;9.70;99.90;;;8.94;100.00;99034.78;4221469;28;20475;-75
2023/10/28 06:19:23;;;;;;;11.48;2.55;;;9.70;99.90;;;8.98;100.00;99043.13;4218179;28;20040;-75
2023/10/28 06:21:23;;;;;;;15.75;1.90;;;9.80;99.90;;;8.97;100.00;99029.16;4220967;28;20044;-75
2023/10/28 06:23:25;;;;;;;6.80;1.63;;;9.80;99.90;;;9.02;100.00;99033.88;4219914;28;20467;-75
2023/10/28 06:25:26;;;;;;;9.80;1.30;;;9.80;99.90;;;9.04;100.00;99029.22;4221246;28;20069;-75
2023/10/28 06:27:27;;;;;;;9.23;1.48;;;9.80;99.90;;;9.03;100.00;99024.94;4220893;28;20409;-75
2023/10/28 06:29:28;;;;;;;10.90;2.28;;;9.80;99.90;;;9.06;100.00;99024.56;4220852;28;20032;-75
2023/10/28 06:31:28;;;;;;;15.70;2.60;;;9.80;99.90;;;9.08;100.00;99027.84;4202889;28;20020;-75
2023/10/28 06:33:29;;;;;;;12.13;1.95;;;9.90;99.90;;;9.12;100.00;99034.34;4203063;28;20039;-75
2023/10/28 06:35:30;;;;;;;7.97;1.38;;;9.90;99.90;;;9.13;100.00;99028.09;4220823;28;20020;-75
2023/10/28 06:37:31;;;;;;;12.30;2.28;;;9.90;99.90;;;9.17;100.00;99029.34;4220800;28;20054;-75
2023/10/28 06:39:35;;;;;;;6.78;1.73;;;10.00;99.90;;;9.22;100.00;99029.59;4220241;28;20016;-75
2023/10/28 06:41:36;;;;;;;11.68;1.77;;;10.00;99.90;;;9.21;100.00;99027.97;4202409;28;20020;-75
2023/10/28 06:43:37;;;;;;;12.40;2.33;;;10.00;99.90;;;9.23;100.00;99032.03;4219394;28;20112;-75
2023/10/28 06:45:38;;;;;;;11.80;1.95;;;10.00;99.90;;;9.23;100.00;99025.94;4217461;28;20024;-75
2023/10/28 06:47:40;;;;;;;8.25;2.30;;;10.00;99.90;;;9.27;100.00;99032.47;4220629;28;20028;-75
2023/10/28 06:49:41;;;;;;;12.68;1.73;;;10.00;99.90;;;9.28;100.00;99028.84;4202869;28;20047;-75
2023/10/28 06:51:43;;;;;;;17.55;2.85;;;10.10;99.90;;;9.35;100.00;99038.41;4220545;28;20044;-75
2023/10/28 06:53:44;;;;;;;6.72;1.40;;;10.10;99.90;;;9.43;100.00;99040.09;4220441;28;20028;-75
2023/10/28 06:55:48;;;;;;;9.95;1.92;;;10.20;99.90;;;9.44;100.00;99036.44;4220719;28;20016;-75
2023/10/28 06:57:48;;;;;;;10.13;1.83;;;10.20;99.90;;;9.42;100.00;99041.09;4205142;28;20088;-75
2023/10/28 06:59:49;;;;;;;11.52;2.10;;;10.20;99.90;;;9.41;100.00;99039.47;4219169;28;20038;-75
2023/10/28 07:01:50;;;;;;;6.22;1.85;;;10.20;99.90;;;9.44;100.00;99041.72;4220250;28;20017;-75
2023/10/28 07:03:51;;;;;;;9.02;1.90;;;10.20;99.90;;;9.47;100.00;99041.31;4220382;28;20491;-75
2023/10/28 07:05:52;;;;;;;9.82;1.98;;;10.20;99.90;;;9.54;100.00;99026.41;4220403;28;20018;-75
2023/10/28 07:07:54;;;;;;;11.45;2.83;;;10.30;99.90;;;9.59;100.00;99026.66;4202329;28;20507;-75
2023/10/28 07:09:55;;;;;;;10.18;3.17;;;10.30;99.90;;;9.67;100.00;99017.81;4202715;28;20025;-75
2023/10/28 07:11:55;;;;;;;9.60;4.07;;;10.40;99.90;;;9.70;100.00;99007.72;4202032;28;20040;-75
2023/10/28 07:13:56;;;;;;;15.60;4.35;;;10.40;99.90;;;9.73;100.00;98999.44;4220503;28;20024;-75
2023/10/28 07:16:04;;;;;;;12.30;3.25;;;10.50;99.90;;;9.75;100.00;99010.56;4202279;28;20032;-75
2023/10/28 07:18:07;;;;;;;10.35;3.15;;;10.40;99.90;;;9.75;100.00;99005.31;4218042;28;20028;-75
2023/10/28 07:20:08;;;;;;;9.13;5.85;;;10.50;99.90;;;9.76;100.00;99016.66;4220097;28;20039;-75
2023/10/28 07:22:09;;;;;;;13.25;6.60;;;10.50;99.90;;;9.79;100.00;99016.28;4220425;28;20495;-75
2023/10/28 07:24:11;;;;;;;16.08;6.32;;;10.50;99.90;;;9.81;100.00;99017.69;4202151;28;20021;-75
2023/10/28 07:26:12;;;;;;;16.95;4.28;;;10.50;99.90;;;9.84;100.00;99017.31;4219403;28;20027;-75
2023/10/28 07:28:14;;;;;;;14.30;3.90;;;10.60;99.90;;;9.88;100.00;99010.66;4220010;28;20028;-75
2023/10/28 07:30:15;;;;;;;6.53;2.55;;;10.60;99.90;;;9.93;100.00;99021.41;4202131;28;20095;-75
2023/10/28 07:32:16;;;;;;;10.57;2.72;;;10.70;99.90;;;9.98;100.00;99024.28;4202156;28;20036;-75
2023/10/28 07:34:18;;;;;;;11.40;3.20;;;10.70;99.90;;;9.98;100.00;99021.66;4219770;28;20034;-75
2023/10/28 07:36:19;;;;;;;8.30;2.33;;;10.70;99.90;;;10.01;100.00;99038.88;4220150;28;20043;-75
2023/10/28 07:38:21;;;;;;;16.27;2.58;;;10.70;99.90;;;10.02;100.00;99028.16;4219854;28;20028;-75
2023/10/28 07:40:21;;;;;;;16.35;2.45;;;10.80;99.90;;;10.01;100.00;99018.63;4219808;28;20032;-75
2023/10/28 07:42:23;;;;;;;14.73;2.97;;;10.70;99.90;;;10.02;100.00;99022.91;4219268;28;20039;-75
2023/10/28 07:44:24;;;;;;;12.13;2.40;;;10.80;99.90;;;10.05;100.00;99021.69;4219790;28;20062;-75
2023/10/28 07:46:30;;;;;;;15.25;2.95;;;10.80;99.90;;;10.11;100.00;99009.56;4219754;28;20087;-75
2023/10/28 07:48:31;;;;;;;11.50;3.17;;;10.80;99.90;;;10.15;100.00;99003.75;4219906;28;20020;-75
2023/10/28 07:50:33;;;;;;;12.63;2.75;;;10.90;99.90;;;10.20;100.00;98989.97;4219321;28;20398;-75
2023/10/28 07:52:34;;;;;;;9.75;3.28;;;10.90;99.90;;;10.25;100.00;98984.91;4200922;28;20090;-75
2023/10/28 07:54:35;;;;;;;19.60;3.20;;;11.00;99.90;;;10.37;100.00;98964.91;4201646;28;20040;-75
2023/10/28 07:56:35;;;;;;;16.88;4.63;;;11.10;99.90;;;10.53;100.00;98969.81;4201386;28;20545;-75
2023/10/28 07:58:36;;;;;;;16.52;3.45;;;11.20;99.90;;;10.69;100.00;98982.66;4201315;28;20094;-76
2023/10/28 08:00:37;;;;;;;19.67;2.95;;;11.30;99.90;;;10.87;100.00;98979.44;4201465;28;20442;-76
2023/10/28 08:02:43;;;;;;;13.73;2.80;;;11.50;99.90;;;11.00;100.00;98982.91;4219472;28;20465;-73
2023/10/28 08:04:44;;;;;;;16.85;3.28;;;11.60;99.90;;;11.09;100.00;98976.41;4200169;28;20101;-74
2023/10/28 08:06:45;;;;;;;15.80;2.95;;;11.70;99.90;;;11.19;100.00;98972.56;4217691;28;20028;-74
2023/10/28 08:08:46;;;;;;;24.75;4.03;;;11.80;99.90;;;11.20;100.00;98966.28;4218646;28;20020;-75
2023/10/28 08:10:48;;;;;;;23.65;4.78;;;11.90;99.90;;;11.30;100.00;98996.50;4218476;28;20099;-75
2023/10/28 08:12:54;;;;;;;17.58;2.78;;;11.90;99.90;;;11.37;100.00;99012.34;4218206;28;20031;-76
2023/10/28 08:14:55;;;;;;;13.90;3.10;;;12.00;99.90;;;11.41;100.00;98992.47;4218363;28;20031;-76
2023/10/28 08:16:56;;;;;;;18.90;2.92;;;12.10;99.90;;;11.47;100.00;98992.44;4218855;28;20055;-76
2023/10/28 08:18:58;;;;;;;17.42;3.35;;;12.10;99.90;;;11.52;100.00;99000.56;4218454;28;20028;-76
2023/10/28 08:21:00;;;;;;;9.85;2.67;;;12.20;99.90;;;11.61;100.00;99004.63;4218370;28;20031;-76
2023/10/28 08:23:01;;;;;;;13.23;2.97;;;12.20;99.90;;;11.70;100.00;99005.25;4218373;28;20055;-76
2023/10/28 08:25:04;;;;;;;14.50;2.90;;;12.30;99.90;;;11.78;100.00;98993.66;4218637;28;20024;-75